Time;durP1;ratioP1;P1;durP2;ratioP2;P2;SDS_P1;SDS_P2;PMS_P1;PMS_P2;Temp;Humidity;BMP_temperature;BMP_pressure;BME280_temperature;BME280_humidity;BME280_pressure;Samples;Min_cycle;Max_cycle;Signal;HPM_P1;HPM_P2
2023/12/27 00:01:43;;;;;;;3.65;0.70;;;6.00;99.90;;;;;;6238367;22;20008;-79
2023/12/27 00:04:13;;;;;;;4.05;0.75;;;5.90;99.90;;;;;;6238479;22;20001;-78
2023/12/27 00:06:44;;;;;;;2.42;0.60;;;6.00;99.90;;;;;;6239861;22;20051;-78
2023/12/27 00:09:13;;;;;;;2.08;0.82;;;6.00;99.90;;;;;;6239031;22;20007;-79
2023/12/27 00:11:41;;;;;;;4.25;0.60;;;5.90;99.90;;;;;;6237782;22;20000;-78
2023/12/27 00:14:12;;;;;;;2.28;0.73;;;6.10;99.90;;;;;;6238139;22;20044;-78
2023/12/27 00:16:41;;;;;;;2.58;1.10;;;5.90;99.90;;;;;;6238251;22;20314;-78
2023/12/27 00:19:09;;;;;;;3.58;0.60;;;5.80;99.90;;;;;;6239489;23;20001;-78
2023/12/27 00:21:38;;;;;;;1.88;0.68;;;6.00;99.90;;;;;;6240614;22;19997;-78
2023/12/27 00:24:07;;;;;;;3.40;0.80;;;5.60;99.90;;;;;;6238388;22;20001;-78
2023/12/27 00:26:36;;;;;;;3.47;1.08;;;5.90;99.90;;;;;;6238366;22;20063;-78
2023/12/27 00:29:05;;;;;;;2.47;0.70;;;5.60;99.90;;;;;;6238916;22;20020;-78
2023/12/27 00:31:35;;;;;;;2.38;0.98;;;4.60;99.90;;;;;;6241055;22;20084;-77
2023/12/27 00:34:04;;;;;;;3.05;1.00;;;5.50;99.90;;;;;;6240462;22;20020;-79
2023/12/27 00:36:33;;;;;;;2.85;1.10;;;5.80;99.90;;;;;;6238866;22;20071;-78
2023/12/27 00:39:03;;;;;;;4.13;1.25;;;5.50;99.90;;;;;;6238864;22;20255;-78
2023/12/27 00:41:32;;;;;;;3.35;1.33;;;5.40;99.90;;;;;;6240796;22;20066;-78
2023/12/27 00:44:01;;;;;;;4.07;1.00;;;5.40;99.90;;;;;;6239093;22;20031;-79
2023/12/27 00:46:31;;;;;;;5.28;1.38;;;6.10;99.90;;;;;;6239510;23;20016;-79
2023/12/27 00:49:02;;;;;;;5.43;1.70;;;5.50;99.90;;;;;;6240215;22;20005;-78
2023/12/27 00:51:31;;;;;;;5.53;1.58;;;5.60;99.90;;;;;;6238609;22;20039;-78
2023/12/27 00:54:00;;;;;;;7.53;2.00;;;5.40;99.90;;;;;;6239109;22;20027;-78
2023/12/27 00:56:28;;;;;;;5.50;1.30;;;5.50;99.90;;;;;;6240885;22;20064;-78
2023/12/27 00:58:59;;;;;;;6.53;1.65;;;5.40;99.90;;;;;;6239782;22;20028;-78
2023/12/27 01:01:30;;;;;;;6.55;2.60;;;5.40;99.90;;;;;;6240164;22;20001;-78
2023/12/27 01:03:58;;;;;;;3.25;1.02;;;5.30;99.90;;;;;;6240320;22;20376;-78
2023/12/27 01:06:32;;;;;;;8.23;1.65;;;4.90;99.90;;;;;;6240513;22;20064;-78
2023/12/27 01:09:02;;;;;;;6.32;1.52;;;5.60;99.90;;;;;;6239171;23;20001;-78
2023/12/27 01:11:31;;;;;;;3.45;1.20;;;5.30;99.90;;;;;;6238656;23;20036;-78
2023/12/27 01:14:03;;;;;;;3.30;0.80;;;5.30;99.90;;;;;;6237610;23;19996;-78
2023/12/27 01:16:32;;;;;;;4.18;1.10;;;5.40;99.90;;;;;;6237890;22;20078;-78
2023/12/27 01:19:01;;;;;;;2.60;0.80;;;5.60;99.90;;;;;;6239177;23;20028;-78
2023/12/27 01:21:30;;;;;;;2.65;0.70;;;5.20;99.90;;;;;;6240209;22;19996;-78
2023/12/27 01:24:01;;;;;;;2.85;0.70;;;5.20;99.90;;;;;;6239217;23;20039;-78
2023/12/27 01:26:34;;;;;;;1.58;0.50;;;5.90;99.90;;;;;;6239844;23;20028;-78
2023/12/27 01:29:02;;;;;;;1.17;0.50;;;5.10;99.90;;;;;;6239122;22;20004;-78
2023/12/27 01:31:31;;;;;;;3.15;0.82;;;4.90;99.90;;;;;;6238225;23;20028;-78
2023/12/27 01:34:00;;;;;;;4.28;1.48;;;5.10;99.90;;;;;;6238033;22;20016;-78
2023/12/27 01:36:42;;;;;;;4.72;1.50;;;5.20;99.90;;;;;;6237798;23;20016;-78
2023/12/27 01:39:13;;;;;;;5.63;1.80;;;5.30;99.90;;;;;;6239216;22;20015;-78
2023/12/27 01:41:41;;;;;;;3.42;1.35;;;4.90;99.90;;;;;;6238151;22;20016;-78
2023/12/27 01:44:11;;;;;;;2.78;1.05;;;5.00;99.90;;;;;;6238685;23;20072;-78
2023/12/27 01:46:40;;;;;;;3.80;0.88;;;5.00;99.90;;;;;;6236340;23;20000;-78
2023/12/27 01:49:09;;;;;;;3.20;0.70;;;5.10;99.90;;;;;;6234136;23;20031;-78
2023/12/27 01:51:43;;;;;;;2.65;0.70;;;5.20;99.90;;;;;;6232824;23;20088;-78
2023/12/27 01:54:20;;;;;;;1.95;0.50;;;5.50;99.90;;;;;;6231464;23;20115;-78
2023/12/27 01:57:01;;;;;;;3.27;0.57;;;6.30;99.90;;;;;;6208673;23;20023;-78
2023/12/27 01:59:42;;;;;;;1.10;0.30;;;6.30;99.90;;;;;;6234290;23;20032;-76
2023/12/27 02:02:35;;;;;;;2.22;0.40;;;6.80;99.90;;;;;;6231857;23;20016;-78
2023/12/27 02:05:37;;;;;;;1.00;0.30;;;6.90;99.90;;;;;;6088738;23;20026;-78
2023/12/27 02:08:08;;;;;;;1.05;0.20;;;7.20;99.90;;;;;;6113906;23;20018;-77
2023/12/27 02:10:42;;;;;;;1.15;0.17;;;7.40;99.90;;;;;;6087056;23;20010;-78
2023/12/27 02:13:11;;;;;;;0.95;0.30;;;7.40;99.90;;;;;;6113730;23;20030;-78
2023/12/27 02:16:02;;;;;;;1.90;0.52;;;7.50;99.90;;;;;;6027018;23;20052;-77
2023/12/27 02:18:34;;;;;;;1.77;0.22;;;7.50;99.90;;;;;;6027586;23;20031;-78
2023/12/27 02:21:04;;;;;;;1.45;0.25;;;7.50;99.90;;;;;;6006588;23;20011;-78
2023/12/27 02:24:03;;;;;;;1.80;0.30;;;7.30;99.90;;;;;;6008728;23;20014;-78
2023/12/27 02:27:01;;;;;;;0.77;0.20;;;7.20;99.90;;;;;;5914920;24;20042;-78
2023/12/27 02:29:37;;;;;;;0.98;0.30;;;7.00;99.90;;;;;;5916842;24;20033;-78
2023/12/27 02:33:03;;;;;;;1.13;0.13;;;7.30;99.90;;;;;;5809346;24;20078;-78
2023/12/27 02:36:51;;;;;;;1.50;0.20;;;7.20;99.90;;;;;;5900123;24;20664;-78
2023/12/27 02:39:20;;;;;;;0.43;0.20;;;6.90;99.90;;;;;;5914560;24;20029;-78
2023/12/27 02:41:51;;;;;;;0.82;0.20;;;7.00;99.90;;;;;;5903870;24;20045;-79
2023/12/27 02:44:28;;;;;;;1.70;0.40;;;7.10;99.90;;;;;;6012556;23;20039;-78
2023/12/27 02:47:10;;;;;;;2.38;0.30;;;5.90;99.90;;;;;;6080111;23;20023;-78
2023/12/27 02:49:38;;;;;;;4.10;1.75;;;7.00;99.90;;;;;;6098970;23;20026;-78
2023/12/27 02:52:09;;;;;;;1.20;0.20;;;6.80;99.90;;;;;;6170489;23;20045;-78
2023/12/27 02:54:38;;;;;;;0.60;0.20;;;7.00;99.90;;;;;;6148981;23;20322;-79
2023/12/27 02:57:10;;;;;;;2.08;0.30;;;6.70;99.90;;;;;;6176211;23;20018;-78
2023/12/27 02:59:40;;;;;;;1.23;0.15;;;6.50;99.90;;;;;;6146020;23;20006;-78
2023/12/27 03:02:09;;;;;;;0.77;0.30;;;6.80;99.90;;;;;;6119359;23;20026;-78
2023/12/27 03:04:37;;;;;;;3.33;0.17;;;6.20;99.90;;;;;;6144365;23;20022;-78
2023/12/27 03:07:07;;;;;;;2.90;0.30;;;6.80;99.90;;;;;;6169726;23;20240;-79
2023/12/27 03:09:37;;;;;;;2.67;0.40;;;6.50;99.90;;;;;;6203668;23;20001;-79
2023/12/27 03:12:06;;;;;;;2.20;0.20;;;6.50;99.90;;;;;;6179306;23;20005;-78
2023/12/27 03:20:42;;;;;;;1.23;0.25;;;6.40;99.90;;;;;;6194265;23;20044;-78
2023/12/27 03:23:11;;;;;;;0.93;0.20;;;6.30;99.90;;;;;;6207254;23;20009;-79
2023/12/27 03:31:51;;;;;;;1.70;0.30;;;6.10;99.90;;;;;;6189351;23;20020;-78
2023/12/27 03:34:23;;;;;;;0.63;0.28;;;6.10;99.90;;;;;;6207519;23;20001;-78
2023/12/27 03:36:53;;;;;;;0.43;0.15;;;6.20;99.90;;;;;;6206907;23;20042;-79
2023/12/27 03:39:23;;;;;;;0.88;0.20;;;6.00;99.90;;;;;;6208002;23;20001;-79
2023/12/27 03:41:52;;;;;;;0.57;0.28;;;5.90;99.90;;;;;;6207919;23;20016;-78
2023/12/27 03:44:20;;;;;;;2.85;0.40;;;5.80;99.90;;;;;;6209179;23;20065;-79
2023/12/27 03:46:48;;;;;;;1.27;0.30;;;5.60;99.90;;;;;;6209900;23;20200;-78
2023/12/27 03:49:20;;;;;;;1.15;0.20;;;5.60;99.90;;;;;;6207942;23;20065;-79
2023/12/27 03:51:49;;;;;;;2.42;0.30;;;5.50;99.90;;;;;;6207226;23;20013;-78
2023/12/27 03:54:20;;;;;;;0.52;0.20;;;5.50;99.90;;;;;;6207448;23;20000;-79
2023/12/27 03:56:49;;;;;;;1.00;0.20;;;5.40;99.90;;;;;;6206777;23;20081;-78
2023/12/27 03:59:17;;;;;;;0.90;0.20;;;5.40;99.90;;;;;;6205961;23;20024;-78
2023/12/27 04:01:46;;;;;;;3.60;0.50;;;5.30;99.90;;;;;;6207369;23;20005;-79
2023/12/27 04:04:15;;;;;;;6.30;1.63;;;5.30;99.90;;;;;;6206011;23;20001;-78
2023/12/27 04:06:44;;;;;;;3.60;1.05;;;5.20;99.90;;;;;;6206935;23;20104;-79
2023/12/27 04:09:13;;;;;;;5.22;1.80;;;5.20;99.90;;;;;;6207586;23;20017;-79
2023/12/27 04:11:47;;;;;;;4.30;1.45;;;5.10;99.90;;;;;;6207143;23;20077;-78
2023/12/27 04:14:16;;;;;;;4.20;1.23;;;5.10;99.90;;;;;;6210915;23;20039;-79
2023/12/27 04:16:48;;;;;;;2.92;0.35;;;5.10;99.90;;;;;;6207263;23;20007;-79
2023/12/27 04:19:16;;;;;;;2.47;0.70;;;5.20;99.90;;;;;;6205420;23;20089;-79
2023/12/27 04:21:45;;;;;;;0.88;0.50;;;5.20;99.90;;;;;;6209656;23;20027;-78
2023/12/27 04:24:14;;;;;;;2.75;0.32;;;5.00;99.90;;;;;;6209616;23;20048;-78
2023/12/27 04:26:43;;;;;;;1.48;0.60;;;4.90;99.90;;;;;;6208686;23;20524;-79
2023/12/27 04:29:15;;;;;;;2.63;0.50;;;5.10;99.90;;;;;;6209632;23;20005;-78
2023/12/27 04:31:44;;;;;;;1.02;0.30;;;4.80;99.90;;;;;;6206614;23;20016;-78
2023/12/27 04:34:13;;;;;;;1.15;0.40;;;5.00;99.90;;;;;;6207885;23;20000;-78
2023/12/27 04:36:42;;;;;;;2.50;0.47;;;4.90;99.90;;;;;;6207937;23;20009;-79
2023/12/27 04:39:11;;;;;;;1.80;0.30;;;4.90;99.90;;;;;;6208784;23;20011;-79
2023/12/27 04:41:39;;;;;;;1.33;0.45;;;4.90;99.90;;;;;;6211053;23;20020;-78
2023/12/27 04:44:08;;;;;;;1.63;0.55;;;4.90;99.90;;;;;;6208428;23;20029;-78
2023/12/27 04:46:38;;;;;;;1.20;0.40;;;4.90;99.90;;;;;;6207591;23;20017;-78
2023/12/27 04:49:08;;;;;;;2.33;0.50;;;4.80;99.90;;;;;;6208957;23;20020;-78
2023/12/27 04:51:37;;;;;;;1.10;0.30;;;4.90;99.90;;;;;;6207398;23;20009;-78
2023/12/27 04:54:07;;;;;;;1.17;0.28;;;4.70;99.90;;;;;;6208137;23;20108;-78
2023/12/27 04:56:35;;;;;;;1.95;0.32;;;4.70;99.90;;;;;;6208727;23;20040;-78
2023/12/27 04:59:04;;;;;;;1.52;0.50;;;4.80;99.90;;;;;;6208575;23;19997;-78
2023/12/27 05:01:33;;;;;;;2.00;0.60;;;4.70;99.90;;;;;;6207612;23;20081;-78
2023/12/27 05:04:03;;;;;;;2.03;0.50;;;4.60;99.90;;;;;;6206837;23;20017;-78
2023/12/27 05:06:32;;;;;;;1.80;0.50;;;4.70;99.90;;;;;;6208181;23;20069;-78
2023/12/27 05:09:04;;;;;;;1.55;0.40;;;4.60;99.90;;;;;;6207718;23;20252;-78
2023/12/27 05:11:34;;;;;;;3.10;0.70;;;4.80;99.90;;;;;;6208543;23;20028;-78
2023/12/27 05:14:02;;;;;;;1.60;0.32;;;4.50;99.90;;;;;;6208706;23;20001;-78
2023/12/27 05:16:32;;;;;;;1.48;0.50;;;4.60;99.90;;;;;;6207166;23;20028;-78
2023/12/27 05:19:03;;;;;;;1.45;0.50;;;4.50;99.90;;;;;;6206174;23;20009;-78
2023/12/27 05:21:32;;;;;;;2.45;0.50;;;4.50;99.90;;;;;;6203697;23;20032;-78
2023/12/27 05:24:02;;;;;;;3.15;0.30;;;3.90;99.90;;;;;;6205309;23;20025;-78
2023/12/27 05:26:30;;;;;;;2.70;0.60;;;4.40;99.90;;;;;;6203778;23;20364;-78
2023/12/27 05:28:59;;;;;;;1.73;0.40;;;4.40;99.90;;;;;;6199826;23;20040;-78
2023/12/27 05:31:29;;;;;;;2.20;0.40;;;4.60;99.90;;;;;;6196841;23;20025;-78
2023/12/27 05:33:57;;;;;;;4.55;0.50;;;4.30;99.90;;;;;;6199719;23;20044;-78
2023/12/27 05:36:28;;;;;;;2.17;1.00;;;4.50;99.90;;;;;;6197798;23;20021;-78
2023/12/27 05:38:56;;;;;;;2.92;0.68;;;4.50;99.90;;;;;;6193247;23;20056;-78
2023/12/27 05:41:26;;;;;;;2.67;0.63;;;4.30;99.90;;;;;;6191693;23;20052;-78
2023/12/27 05:43:56;;;;;;;1.48;0.50;;;4.20;99.90;;;;;;6192234;23;20027;-78
2023/12/27 05:46:24;;;;;;;3.63;1.15;;;4.20;99.90;;;;;;6193571;23;20138;-78
2023/12/27 05:48:53;;;;;;;1.80;0.40;;;4.00;99.90;;;;;;6190281;23;20025;-78
2023/12/27 05:51:22;;;;;;;2.25;0.50;;;4.20;99.90;;;;;;6191550;23;20032;-78
2023/12/27 05:53:52;;;;;;;2.80;0.60;;;4.10;99.90;;;;;;6189594;23;20361;-77
2023/12/27 05:56:20;;;;;;;1.52;0.52;;;4.20;99.90;;;;;;6191491;23;20060;-77
2023/12/27 05:58:49;;;;;;;2.25;0.63;;;4.10;99.90;;;;;;6188324;23;20025;-78
2023/12/27 06:01:19;;;;;;;3.70;0.57;;;4.50;99.90;;;;;;6190845;23;20029;-78
2023/12/27 06:03:47;;;;;;;3.45;1.27;;;4.00;99.90;;;;;;6193380;23;20473;-78
2023/12/27 06:06:15;;;;;;;4.05;1.08;;;3.70;99.90;;;;;;6187178;23;20028;-78
2023/12/27 06:08:45;;;;;;;4.00;1.30;;;4.00;99.90;;;;;;6188788;23;20185;-78
2023/12/27 06:11:15;;;;;;;3.85;1.50;;;4.10;99.90;;;;;;6192008;23;20021;-78
2023/12/27 06:13:44;;;;;;;4.57;1.30;;;3.70;99.90;;;;;;6188286;23;20028;-77
2023/12/27 06:16:16;;;;;;;2.70;1.00;;;4.20;99.90;;;;;;6188337;23;20044;-77
2023/12/27 06:18:45;;;;;;;3.78;1.50;;;4.00;99.90;;;;;;6187224;23;20048;-78
2023/12/27 06:21:14;;;;;;;5.75;1.20;;;4.00;99.90;;;;;;6188977;23;20104;-78
2023/12/27 06:23:42;;;;;;;3.10;0.90;;;4.00;99.90;;;;;;6188253;23;20028;-78
2023/12/27 06:26:11;;;;;;;4.20;0.95;;;4.30;99.90;;;;;;6188533;23;20060;-78
2023/12/27 06:28:41;;;;;;;2.60;0.68;;;4.00;99.90;;;;;;6188380;23;20025;-77
2023/12/27 06:31:10;;;;;;;4.25;1.15;;;3.90;99.90;;;;;;6192080;23;20024;-78
2023/12/27 06:33:39;;;;;;;3.90;1.10;;;4.20;99.90;;;;;;6190782;23;20021;-78
2023/12/27 06:36:08;;;;;;;9.70;3.28;;;4.10;99.90;;;;;;6188711;23;20033;-78
2023/12/27 06:38:36;;;;;;;3.95;1.17;;;4.20;99.90;;;;;;6188400;23;20025;-78
2023/12/27 06:41:07;;;;;;;4.38;1.45;;;4.10;99.90;;;;;;6187881;23;20064;-77
2023/12/27 06:43:35;;;;;;;14.48;5.78;;;4.20;99.90;;;;;;6193043;23;20301;-78
2023/12/27 06:46:05;;;;;;;26.20;11.20;;;4.20;99.90;;;;;;6192664;23;20047;-78
2023/12/27 06:48:34;;;;;;;24.45;13.38;;;4.10;99.90;;;;;;6193320;23;20025;-78
2023/12/27 06:51:05;;;;;;;12.02;8.30;;;4.20;99.90;;;;;;6191910;23;20017;-77
2023/12/27 06:53:34;;;;;;;6.05;2.85;;;4.80;99.90;;;;;;6188079;23;20021;-77
2023/12/27 06:56:02;;;;;;;7.75;3.35;;;4.10;99.90;;;;;;6187492;23;20104;-78
2023/12/27 06:58:30;;;;;;;5.78;3.28;;;4.10;99.90;;;;;;6191181;23;20034;-78
2023/12/27 07:00:59;;;;;;;5.68;2.42;;;4.00;99.90;;;;;;6194238;23;20021;-78
2023/12/27 07:03:30;;;;;;;4.25;1.88;;;4.10;99.90;;;;;;6195626;23;20027;-78
2023/12/27 07:05:59;;;;;;;3.03;1.20;;;3.20;99.90;;;;;;6196477;23;20055;-78
2023/12/27 07:08:31;;;;;;;4.15;1.77;;;4.30;99.90;;;;;;6198105;23;20105;-78
2023/12/27 07:11:00;;;;;;;5.57;1.80;;;4.00;99.90;;;;;;6198493;23;20021;-78
2023/12/27 07:13:29;;;;;;;4.00;1.40;;;3.90;99.90;;;;;;6200175;23;20034;-78
2023/12/27 07:15:57;;;;;;;2.60;0.85;;;4.00;99.90;;;;;;6200639;23;20021;-78
2023/12/27 07:18:26;;;;;;;2.50;1.08;;;4.10;99.90;;;;;;6198332;23;20017;-78
2023/12/27 07:20:57;;;;;;;3.90;1.10;;;4.10;99.90;;;;;;6198620;23;20073;-78
2023/12/27 07:23:26;;;;;;;2.45;1.35;;;4.10;99.90;;;;;;6197471;23;20017;-78
2023/12/27 07:25:55;;;;;;;5.28;1.67;;;4.20;99.90;;;;;;6194853;23;20095;-78
2023/12/27 07:28:23;;;;;;;4.28;1.88;;;4.50;99.90;;;;;;6192529;23;20084;-78
2023/12/27 07:30:52;;;;;;;7.95;3.47;;;4.50;99.90;;;;;;6191922;23;20025;-78
2023/12/27 07:33:22;;;;;;;4.28;1.90;;;4.00;99.90;;;;;;6192810;23;20479;-78
2023/12/27 07:35:54;;;;;;;5.25;3.22;;;4.50;99.90;;;;;;6196991;23;20040;-78
2023/12/27 07:38:24;;;;;;;5.32;2.65;;;4.30;99.90;;;;;;6196825;23;20005;-78
2023/12/27 07:40:56;;;;;;;11.48;4.57;;;4.60;99.90;;;;;;6201385;23;20504;-79
2023/12/27 07:43:25;;;;;;;17.52;10.00;;;4.60;99.90;;;;;;6200452;23;20009;-78
2023/12/27 07:45:54;;;;;;;10.25;5.78;;;4.40;99.90;;;;;;6201910;23;20005;-78
2023/12/27 07:48:23;;;;;;;5.70;3.22;;;4.30;99.90;;;;;;6203178;23;20068;-78
2023/12/27 07:50:52;;;;;;;9.70;5.43;;;5.00;99.90;;;;;;6205595;23;20021;-78
2023/12/27 07:53:24;;;;;;;20.90;10.18;;;5.50;99.90;;;;;;6203064;23;20509;-78
2023/12/27 07:55:54;;;;;;;5.32;3.42;;;5.30;99.90;;;;;;6202260;23;20461;-79
2023/12/27 07:58:23;;;;;;;6.38;3.05;;;5.50;99.90;;;;;;6206062;23;20005;-79
2023/12/27 08:00:53;;;;;;;7.57;3.10;;;4.50;99.90;;;;;;6206090;23;20024;-79
2023/12/27 08:03:22;;;;;;;6.28;2.50;;;5.30;99.90;;;;;;6205086;23;20342;-79
2023/12/27 08:05:51;;;;;;;3.92;2.00;;;5.50;99.90;;;;;;6204759;23;20068;-78
2023/12/27 08:08:20;;;;;;;3.55;2.03;;;5.50;99.90;;;;;;6204145;23;20048;-78
2023/12/27 08:10:51;;;;;;;7.15;3.03;;;5.50;99.90;;;;;;6204626;23;20078;-78
2023/12/27 08:13:20;;;;;;;3.67;2.03;;;5.90;99.90;;;;;;6206640;23;20017;-79
2023/12/27 08:15:53;;;;;;;3.50;1.60;;;5.70;99.90;;;;;;6209852;23;20005;-79
2023/12/27 08:18:22;;;;;;;10.70;3.58;;;5.50;99.90;;;;;;6209309;23;20017;-78
2023/12/27 08:20:52;;;;;;;18.58;8.10;;;6.10;99.90;;;;;;6202694;23;20100;-78
2023/12/27 08:23:20;;;;;;;5.50;3.35;;;6.10;99.90;;;;;;6206171;23;20083;-78
2023/12/27 08:25:50;;;;;;;6.18;2.65;;;6.10;99.90;;;;;;6208235;23;20001;-78
2023/12/27 08:28:19;;;;;;;11.32;4.95;;;6.30;99.90;;;;;;6204478;23;20008;-78
2023/12/27 08:30:48;;;;;;;18.85;11.18;;;6.20;99.90;;;;;;6203922;23;20013;-78
2023/12/27 08:33:17;;;;;;;14.07;7.97;;;6.60;99.90;;;;;;6201515;23;20033;-78
2023/12/27 08:35:46;;;;;;;47.15;27.02;;;6.50;99.90;;;;;;6155233;23;19997;-78
2023/12/27 08:38:14;;;;;;;48.55;31.75;;;6.60;99.90;;;;;;6202951;23;20011;-78
2023/12/27 08:40:43;;;;;;;29.10;16.65;;;5.80;99.90;;;;;;6202230;23;20036;-78
2023/12/27 08:43:14;;;;;;;9.30;5.07;;;6.80;99.90;;;;;;6201270;23;20017;-79
2023/12/27 08:45:42;;;;;;;22.60;12.02;;;7.80;99.90;;;;;;6200592;23;20021;-78
2023/12/27 08:48:11;;;;;;;11.15;7.55;;;7.00;99.90;;;;;;6204153;23;20025;-79
2023/12/27 08:50:41;;;;;;;19.65;13.20;;;7.00;99.90;;;;;;6199698;23;20012;-78
2023/12/27 08:53:11;;;;;;;12.85;6.13;;;7.10;99.90;;;;;;6202544;23;20002;-78
2023/12/27 08:55:40;;;;;;;6.20;2.88;;;7.10;99.90;;;;;;6199625;23;20031;-78
2023/12/27 08:58:09;;;;;;;6.43;3.15;;;7.10;99.90;;;;;;6201676;23;20024;-78
2023/12/27 09:00:39;;;;;;;3.33;1.13;;;7.20;99.90;;;;;;6176114;23;20021;-78
2023/12/27 09:03:08;;;;;;;5.88;2.17;;;7.40;99.90;;;;;;6201998;23;20041;-79
2023/12/27 09:05:37;;;;;;;5.43;2.58;;;7.40;99.90;;;;;;6204450;23;20017;-79
2023/12/27 09:08:06;;;;;;;3.75;1.95;;;7.30;99.90;;;;;;6205135;23;20008;-78
2023/12/27 09:10:35;;;;;;;3.75;2.65;;;6.70;99.90;;;;;;6203437;23;20001;-78
2023/12/27 09:13:07;;;;;;;6.20;3.38;;;7.60;99.90;;;;;;6202592;23;20005;-78
2023/12/27 09:15:36;;;;;;;5.53;3.50;;;7.70;99.90;;;;;;6177955;23;20025;-80
2023/12/27 09:18:07;;;;;;;6.43;4.47;;;7.80;99.90;;;;;;6169003;23;20315;-80
2023/12/27 09:20:36;;;;;;;1.50;0.70;;;7.80;99.90;;;;;;6172446;23;20017;-79
2023/12/27 09:23:05;;;;;;;2.83;0.77;;;7.80;99.90;;;;;;6129225;23;20117;-80
2023/12/27 09:25:34;;;;;;;3.10;1.23;;;7.70;99.90;;;;;;6130994;23;20029;-80
2023/12/27 09:28:04;;;;;;;1.42;0.68;;;7.80;99.90;;;;;;6153071;23;20037;-79
2023/12/27 09:30:32;;;;;;;2.00;0.85;;;8.00;99.90;;;;;;6127130;23;20347;-79
2023/12/27 09:33:01;;;;;;;1.35;0.45;;;8.20;99.90;;;;;;6151393;23;20092;-81
2023/12/27 09:35:31;;;;;;;3.50;0.50;;;8.20;99.90;;;;;;6149559;23;20021;-80
2023/12/27 09:37:59;;;;;;;2.83;0.43;;;8.30;99.90;;;;;;6119350;23;20063;-80
2023/12/27 09:40:28;;;;;;;4.57;0.60;;;8.30;99.90;;;;;;6142266;23;20076;-80
2023/12/27 09:42:57;;;;;;;1.60;0.30;;;8.30;99.90;;;;;;6119983;23;20056;-81
2023/12/27 09:45:30;;;;;;;1.25;0.43;;;8.30;99.90;;;;;;6115815;23;20637;-80
2023/12/27 09:47:59;;;;;;;;;;;8.30;99.90;;;;;;6139566;23;20477;-81
2023/12/27 09:50:29;;;;;;;2.00;0.55;;;8.30;99.90;;;;;;6115158;23;19927;-80
2023/12/27 09:53:00;;;;;;;3.10;1.30;;;8.20;99.90;;;;;;6113212;23;20025;-82
2023/12/27 09:55:29;;;;;;;4.20;2.10;;;8.00;99.90;;;;;;6113023;23;20090;-81
2023/12/27 09:57:57;;;;;;;2.95;1.80;;;8.00;99.90;;;;;;6138412;23;20021;-82
2023/12/27 10:00:29;;;;;;;2.22;0.68;;;7.80;99.90;;;;;;6119145;23;20030;-81
2023/12/27 10:03:00;;;;;;;2.38;0.57;;;7.90;99.90;;;;;;6114126;23;20116;-82
2023/12/27 10:05:44;;;;;;;1.50;0.40;;;8.00;99.90;;;;;;6114937;23;20443;-81
2023/12/27 10:08:13;;;;;;;2.30;0.57;;;7.80;99.90;;;;;;6116862;23;20029;-80
2023/12/27 10:10:43;;;;;;;1.65;0.60;;;7.80;99.90;;;;;;6142022;23;20084;-80
2023/12/27 10:13:13;;;;;;;1.88;0.43;;;7.70;99.90;;;;;;6134160;23;20025;-80
2023/12/27 10:15:41;;;;;;;2.90;0.77;;;7.70;99.90;;;;;;6111443;23;20104;-80
2023/12/27 10:18:10;;;;;;;2.40;0.70;;;7.70;99.90;;;;;;6137704;23;20131;-80
2023/12/27 10:20:43;;;;;;;4.18;0.65;;;7.60;99.90;;;;;;6138501;23;20029;-80
2023/12/27 10:23:11;;;;;;;3.95;0.90;;;7.50;99.90;;;;;;6139203;23;20029;-80
2023/12/27 10:25:40;;;;;;;5.82;1.00;;;7.50;99.90;;;;;;6138706;23;20395;-80
2023/12/27 10:28:09;;;;;;;3.47;0.85;;;7.50;99.90;;;;;;6139007;23;20025;-82
2023/12/27 10:30:37;;;;;;;4.10;0.50;;;7.50;99.90;;;;;;6137694;23;20722;-79
2023/12/27 10:33:06;;;;;;;3.92;0.55;;;7.80;99.90;;;;;;6115577;23;20025;-83
2023/12/27 10:35:39;;;;;;;1.48;0.45;;;8.00;99.90;;;;;;6116672;23;20021;-81
2023/12/27 10:38:08;;;;;;;2.05;0.40;;;8.30;99.90;;;;;;6115314;23;20025;-79
2023/12/27 10:40:39;;;;;;;3.15;0.35;;;8.50;99.90;;;;;;6139927;23;20026;-82
2023/12/27 10:43:07;;;;;;;2.10;0.40;;;8.60;99.90;;;;;;6139770;23;20025;-81
2023/12/27 10:45:37;;;;;;;0.65;0.20;;;8.80;99.90;;;;;;6112133;23;20518;-79
2023/12/27 10:48:06;;;;;;;2.05;0.30;;;8.80;99.90;;;;;;6111835;23;20029;-80
2023/12/27 10:50:35;;;;;;;5.05;0.20;;;8.70;99.90;;;;;;6139832;23;20029;-81
2023/12/27 10:53:07;;;;;;;3.08;1.00;;;8.90;99.90;;;;;;6138052;23;20812;-81
2023/12/27 10:55:38;;;;;;;2.33;0.77;;;9.00;99.90;;;;;;6112961;23;20021;-83
2023/12/27 10:58:10;;;;;;;2.05;0.30;;;9.00;99.90;;;;;;6140222;23;20255;-83
2023/12/27 11:00:39;;;;;;;1.73;0.33;;;9.00;99.90;;;;;;6138770;23;20032;-80
2023/12/27 11:03:08;;;;;;;15.52;3.92;;;9.00;99.90;;;;;;6137000;23;20721;-81
2023/12/27 11:05:38;;;;;;;3.67;1.08;;;9.20;99.90;;;;;;6138244;23;20038;-83
2023/12/27 11:08:07;;;;;;;4.07;0.80;;;9.10;99.90;;;;;;6114020;23;20840;-82
2023/12/27 11:10:40;;;;;;;10.20;1.98;;;9.10;99.90;;;;;;6115161;23;20332;-79
2023/12/27 11:13:10;;;;;;;10.52;3.67;;;9.10;99.90;;;;;;6137160;23;20107;-83
2023/12/27 11:15:44;;;;;;;8.10;1.92;;;9.20;99.90;;;;;;6111336;23;20622;-82
2023/12/27 11:18:13;;;;;;;8.25;1.92;;;9.30;99.90;;;;;;6136328;23;20037;-80
2023/12/27 11:20:47;;;;;;;1.92;0.38;;;9.30;99.90;;;;;;6112546;23;20458;-80
2023/12/27 11:23:16;;;;;;;7.20;1.27;;;9.30;99.70;;;;;;6116833;23;20026;-80
2023/12/27 11:25:47;;;;;;;9.68;2.38;;;9.30;99.90;;;;;;6142072;23;20077;-79
2023/12/27 11:28:16;;;;;;;2.70;0.50;;;9.30;99.90;;;;;;6117048;23;20049;-79
2023/12/27 11:30:46;;;;;;;2.20;0.40;;;9.30;99.90;;;;;;6141700;23;20021;-80
2023/12/27 11:33:21;;;;;;;3.13;0.40;;;9.40;99.50;;;;;;6114472;23;20032;-83
2023/12/27 11:35:51;;;;;;;6.05;1.45;;;9.40;99.60;;;;;;6114192;23;20022;-82
2023/12/27 11:38:22;;;;;;;5.68;0.70;;;9.50;99.40;;;;;;6139929;23;20634;-81
2023/12/27 11:41:02;;;;;;;4.75;1.42;;;9.40;98.90;;;;;;6115016;23;20029;-82
2023/12/27 11:43:53;;;;;;;2.25;0.90;;;9.40;99.00;;;;;;6114861;23;20041;-82
2023/12/27 11:46:26;;;;;;;3.75;0.63;;;9.50;98.60;;;;;;6115917;23;20034;-80
2023/12/27 11:48:55;;;;;;;2.20;0.57;;;9.50;97.60;;;;;;6114502;23;20095;-82
2023/12/27 11:51:33;;;;;;;1.73;0.40;;;9.50;97.90;;;;;;6116763;23;20033;-81
2023/12/27 11:54:03;;;;;;;2.85;0.47;;;9.60;97.40;;;;;;6116412;23;20025;-81
2023/12/27 11:56:34;;;;;;;2.35;0.77;;;9.60;97.20;;;;;;6112808;23;20538;-84
2023/12/27 11:59:07;;;;;;;4.93;0.50;;;9.60;96.50;;;;;;6116078;23;20056;-82
2023/12/27 12:01:38;;;;;;;2.00;0.60;;;9.50;96.20;;;;;;6144365;23;20017;-82
2023/12/27 12:04:31;;;;;;;1.70;0.40;;;9.50;96.80;;;;;;6141459;23;20029;-81
2023/12/27 12:07:54;;;;;;;1.67;0.40;;;9.50;98.30;;;;;;6116887;23;20108;-80
2023/12/27 12:10:26;;;;;;;2.78;0.20;;;9.50;97.20;;;;;;6140755;23;20622;-83
2023/12/27 12:12:57;;;;;;;3.25;0.22;;;9.50;97.50;;;;;;6115794;23;20026;-81
2023/12/27 12:15:30;;;;;;;2.88;0.20;;;9.50;97.70;;;;;;6115475;23;20677;-80
2023/12/27 12:18:00;;;;;;;2.88;0.32;;;9.50;97.90;;;;;;6115425;23;20755;-84
2023/12/27 12:20:30;;;;;;;2.22;0.70;;;9.60;96.50;;;;;;6116945;23;20025;-85
2023/12/27 12:23:00;;;;;;;1.02;0.20;;;9.60;96.10;;;;;;6143580;23;20608;-83
2023/12/27 12:25:29;;;;;;;2.40;0.20;;;9.50;96.50;;;;;;6111351;23;20022;-81
2023/12/27 12:27:59;;;;;;;2.40;0.30;;;9.50;96.20;;;;;;6137434;23;20028;-82
2023/12/27 12:30:28;;;;;;;2.83;0.30;;;9.50;96.40;;;;;;6116411;23;20029;-84
2023/12/27 12:32:57;;;;;;;1.95;0.25;;;9.50;96.30;;;;;;6141814;23;20021;-83
2023/12/27 12:35:26;;;;;;;5.20;1.52;;;9.40;96.80;;;;;;6136571;23;20523;-81
2023/12/27 12:37:54;;;;;;;2.58;0.80;;;9.40;96.20;;;;;;6115999;23;20022;-81
2023/12/27 12:40:23;;;;;;;7.13;0.68;;;9.50;95.50;;;;;;6113617;23;20033;-83
2023/12/27 12:42:52;;;;;;;1.52;0.40;;;9.50;95.60;;;;;;6115549;23;20137;-83
2023/12/27 12:45:22;;;;;;;2.88;0.43;;;9.50;96.10;;;;;;6118641;23;20051;-82
2023/12/27 12:47:51;;;;;;;2.70;0.45;;;9.50;95.60;;;;;;6138387;23;20029;-83
2023/12/27 12:50:20;;;;;;;1.42;0.20;;;9.60;95.00;;;;;;6119684;23;20029;-81
2023/12/27 12:52:50;;;;;;;1.48;0.40;;;9.50;95.40;;;;;;6139516;23;20482;-83
2023/12/27 12:55:18;;;;;;;5.35;0.30;;;9.40;95.90;;;;;;6143325;23;20057;-83
2023/12/27 12:57:47;;;;;;;2.80;0.47;;;9.40;95.40;;;;;;6115092;23;20618;-81
2023/12/27 13:00:23;;;;;;;1.58;0.30;;;9.40;95.80;;;;;;6139743;23;20027;-83
2023/12/27 13:02:54;;;;;;;3.40;0.30;;;9.30;95.70;;;;;;6139886;23;20029;-82
2023/12/27 13:05:22;;;;;;;1.33;0.20;;;9.30;95.60;;;;;;6139138;23;20029;-84
2023/12/27 13:07:51;;;;;;;1.58;0.40;;;9.30;95.40;;;;;;6114575;23;20033;-83
2023/12/27 13:10:20;;;;;;;2.75;0.50;;;9.30;95.60;;;;;;6142535;23;20021;-84
2023/12/27 13:12:48;;;;;;;2.50;0.20;;;9.30;95.60;;;;;;6117647;23;20029;-84
2023/12/27 13:15:19;;;;;;;2.80;0.40;;;9.20;95.90;;;;;;6117439;23;20049;-81
2023/12/27 13:17:50;;;;;;;2.08;0.20;;;9.20;96.00;;;;;;6116080;23;20025;-83
2023/12/27 13:20:19;;;;;;;3.13;0.30;;;9.10;95.80;;;;;;6119667;23;20478;-83
2023/12/27 13:22:47;;;;;;;3.20;0.73;;;9.00;96.10;;;;;;6114397;23;20022;-84
2023/12/27 13:25:17;;;;;;;2.03;0.60;;;8.90;96.30;;;;;;6119541;23;20112;-82
2023/12/27 13:27:46;;;;;;;4.45;1.30;;;8.90;96.40;;;;;;6147096;23;20411;-82